No particular awareness of the weather is required.    There are no Weather-warnings


Meteo18 Weather Cam more information Meteo18 Weather Cam


Thunder radar more information blitzortung!


Rain radar more information rain snow radar


Visit our other weather sites:

Template documentation
and downloads

And another site



Weather Underground History page Text

Daily Summary for March 4, 2018 Units:  Both    English   Metric
« Previous Day
Next Day »
Daily Weekly Monthly Yearly Custom
  High: Low: Average:
Temperature: TemperatureC °F /  -17.8 °C 3.9 °F /  -15.6 °C 6.1 °F /  -14.4 °C
Dew Point: DewpointC °F /  -17.8 °C 2.3 °F /  -16.5 °C 4.5 °F /  -15.3 °C
Humidity: Humidity % 85 % 89 %
Wind Speed: WindSpeedKMH mph /  0 km/h - 3.9 mph /  6.3 km/h
Wind Gust: WindSpeedGustKMH mph /  0 km/h - -
Wind:- - SSW
Pressure: PressurehPa in /  0 hPa 992.4 in /  33602.7 hPa -
Precipitation: 5.3 in /  134.62 mm    
Historical Graphs
 
 
Tabular Data for March 4, 2018
Time Temperature Dew Point Pressure Wind Wind Speed Wind Gust Humidity Rainfall Rate (Hourly)
TemperatureC °F /  -17.8 °C DewpointC °F /  -17.8 °C PressurehPa in /  0 hPa Calm     Humidity % HourlyPrecipMM in /  0 mm
00:04 5.0 °F /  -15 °C 3.0 °F /  -16.1 °C 997.5 in /  33775.4 hPa Calm   1.6 mph /  2.6 km/h 87 % 0.0 in /  0 mm
00:10 4.7 °F /  -15.2 °C 3.0 °F /  -16.1 °C 997.5 in /  33775.4 hPa Calm   1.6 mph /  2.6 km/h 89 % 0.0 in /  0 mm
00:16 5.0 °F /  -15 °C 3.5 °F /  -15.8 °C 997.5 in /  33775.4 hPa Calm     90 % 0.0 in /  0 mm
00:22 5.0 °F /  -15 °C 3.2 °F /  -16 °C 997.5 in /  33775.4 hPa WNW 1.4 mph /  2.3 km/h 1.6 mph /  2.6 km/h 88 % 0.0 in /  0 mm
00:28 4.6 °F /  -15.2 °C 2.9 °F /  -16.2 °C 997.5 in /  33775.4 hPa Calm     89 % 0.0 in /  0 mm
00:34 4.8 °F /  -15.1 °C 3.3 °F /  -15.9 °C 997.5 in /  33775.4 hPa Calm   3.2 mph /  5.1 km/h 90 % 0.0 in /  0 mm
00:40 4.8 °F /  -15.1 °C 3.0 °F /  -16.1 °C 997.5 in /  33775.4 hPa Calm   1.6 mph /  2.6 km/h 88 % 0.0 in /  0 mm
00:46 4.6 °F /  -15.2 °C 2.9 °F /  -16.2 °C 997.5 in /  33775.4 hPa Calm   1.6 mph /  2.6 km/h 89 % 0.0 in /  0 mm
00:52 4.7 °F /  -15.2 °C 3.0 °F /  -16.1 °C 997.2 in /  33765.2 hPa Calm   1.6 mph /  2.6 km/h 89 % 0.0 in /  0 mm
00:58 4.7 °F /  -15.2 °C 3.2 °F /  -16 °C 997.2 in /  33765.2 hPa Calm     90 % 0.0 in /  0 mm
01:04 4.7 °F /  -15.2 °C 3.2 °F /  -16 °C 997.2 in /  33765.2 hPa Calm     90 % 0.0 in /  0 mm
01:10 4.8 °F /  -15.1 °C 3.1 °F /  -16.1 °C 997.2 in /  33765.2 hPa Calm     89 % 0.0 in /  0 mm
01:16 4.7 °F /  -15.2 °C 3.0 °F /  -16.1 °C 997.2 in /  33765.2 hPa NE 1.4 mph /  2.3 km/h 1.6 mph /  2.6 km/h 89 % 0.0 in /  0 mm
01:22 4.8 °F /  -15.1 °C 3.3 °F /  -15.9 °C 997.2 in /  33765.2 hPa Calm   1.6 mph /  2.6 km/h 90 % 0.0 in /  0 mm
01:28 4.8 °F /  -15.1 °C 3.0 °F /  -16.1 °C 996.8 in /  33751.6 hPa Calm     88 % 0.0 in /  0 mm
01:35 4.3 °F /  -15.4 °C 2.5 °F /  -16.4 °C 996.8 in /  33751.6 hPa Calm   1.6 mph /  2.6 km/h 88 % 0.0 in /  0 mm
01:41 4.0 °F /  -15.6 °C 2.4 °F /  -16.4 °C 996.8 in /  33751.6 hPa WNW 1.4 mph /  2.3 km/h 1.6 mph /  2.6 km/h 89 % 0.0 in /  0 mm
01:47 3.9 °F /  -15.6 °C 2.7 °F /  -16.3 °C 997.2 in /  33765.2 hPa Calm     92 % 0.0 in /  0 mm
01:53 4.2 °F /  -15.4 °C 3.0 °F /  -16.1 °C 996.8 in /  33751.6 hPa Calm     92 % 0.0 in /  0 mm
01:59 4.4 °F /  -15.3 °C 3.2 °F /  -16 °C 996.8 in /  33751.6 hPa Calm   1.6 mph /  2.6 km/h 92 % 0.0 in /  0 mm
02:05 4.4 °F /  -15.3 °C 3.1 °F /  -16.1 °C 996.8 in /  33751.6 hPa Calm     91 % 0.0 in /  0 mm
02:11 4.3 °F /  -15.4 °C 3.1 °F /  -16.1 °C 996.8 in /  33751.6 hPa Calm     92 % 0.0 in /  0 mm
02:17 4.4 °F /  -15.3 °C 3.1 °F /  -16.1 °C 996.8 in /  33751.6 hPa Calm     91 % 0.0 in /  0 mm
02:23 4.5 °F /  -15.3 °C 3.2 °F /  -16 °C 996.8 in /  33751.6 hPa NNE 1.4 mph /  2.3 km/h 1.6 mph /  2.6 km/h 91 % 0.0 in /  0 mm
02:29 4.6 °F /  -15.2 °C 3.1 °F /  -16.1 °C 996.5 in /  33741.5 hPa Calm   3.2 mph /  5.1 km/h 90 % 0.0 in /  0 mm
02:35 4.5 °F /  -15.3 °C 3.0 °F /  -16.1 °C 996.5 in /  33741.5 hPa NE 1.4 mph /  2.3 km/h 1.6 mph /  2.6 km/h 90 % 0.0 in /  0 mm
02:41 4.4 °F /  -15.3 °C 2.9 °F /  -16.2 °C 996.2 in /  33731.3 hPa Calm   1.6 mph /  2.6 km/h 90 % 0.0 in /  0 mm
02:47 4.2 °F /  -15.4 °C 2.9 °F /  -16.2 °C 996.2 in /  33731.3 hPa Calm     91 % 0.0 in /  0 mm
02:53 4.2 °F /  -15.4 °C 2.9 °F /  -16.2 °C 996.2 in /  33731.3 hPa Calm     91 % 0.0 in /  0 mm
02:59 4.2 °F /  -15.4 °C 2.9 °F /  -16.2 °C 996.2 in /  33731.3 hPa Calm     91 % 0.0 in /  0 mm
03:05 4.3 °F /  -15.4 °C 3.1 °F /  -16.1 °C 996.2 in /  33731.3 hPa Calm     92 % 0.0 in /  0 mm
03:12 4.4 °F /  -15.3 °C 3.1 °F /  -16.1 °C 996.2 in /  33731.3 hPa Calm   1.6 mph /  2.6 km/h 91 % 0.0 in /  0 mm
03:18 4.5 °F /  -15.3 °C 3.2 °F /  -16 °C 995.8 in /  33717.8 hPa Calm     91 % 0.0 in /  0 mm
03:24 4.5 °F /  -15.3 °C 3.2 °F /  -16 °C 995.8 in /  33717.8 hPa Calm     91 % 0.0 in /  0 mm
03:30 4.3 °F /  -15.4 °C 2.8 °F /  -16.2 °C 995.8 in /  33717.8 hPa Calm     90 % 0.0 in /  0 mm
03:36 4.3 °F /  -15.4 °C 3.0 °F /  -16.1 °C 995.8 in /  33717.8 hPa Calm   1.6 mph /  2.6 km/h 91 % 0.0 in /  0 mm
03:42 4.3 °F /  -15.4 °C 3.1 °F /  -16.1 °C 995.8 in /  33717.8 hPa Calm     92 % 0.0 in /  0 mm
03:48 4.5 °F /  -15.3 °C 3.3 °F /  -15.9 °C 995.8 in /  33717.8 hPa Calm     92 % 0.0 in /  0 mm
03:54 4.6 °F /  -15.2 °C 3.3 °F /  -15.9 °C 995.8 in /  33717.8 hPa Calm     91 % 0.0 in /  0 mm
04:00 4.5 °F /  -15.3 °C 3.2 °F /  -16 °C 995.8 in /  33717.8 hPa Calm     91 % 0.0 in /  0 mm
04:06 4.6 °F /  -15.2 °C 3.3 °F /  -15.9 °C 995.8 in /  33717.8 hPa Calm     91 % 0.0 in /  0 mm
04:12 4.7 °F /  -15.2 °C 3.2 °F /  -16 °C 995.5 in /  33707.6 hPa Calm     90 % 0.0 in /  0 mm
04:18 4.7 °F /  -15.2 °C 3.2 °F /  -16 °C 995.5 in /  33707.6 hPa Calm     90 % 0.0 in /  0 mm
04:24 4.7 °F /  -15.2 °C 3.2 °F /  -16 °C 995.5 in /  33707.6 hPa NW 1.4 mph /  2.3 km/h 1.6 mph /  2.6 km/h 90 % 0.0 in /  0 mm
04:30 4.8 °F /  -15.1 °C 3.3 °F /  -15.9 °C 995.5 in /  33707.6 hPa Calm   1.6 mph /  2.6 km/h 90 % 0.0 in /  0 mm
04:36 4.9 °F /  -15.1 °C 3.2 °F /  -16 °C 995.5 in /  33707.6 hPa Calm     89 % 0.0 in /  0 mm
04:43 4.8 °F /  -15.1 °C 3.1 °F /  -16.1 °C 995.5 in /  33707.6 hPa Calm     89 % 0.0 in /  0 mm
04:49 4.7 °F /  -15.2 °C 3.0 °F /  -16.1 °C 995.5 in /  33707.6 hPa Calm   1.6 mph /  2.6 km/h 89 % 0.0 in /  0 mm
04:55 4.8 °F /  -15.1 °C 3.1 °F /  -16.1 °C 995.1 in /  33694.1 hPa NNE 1.4 mph /  2.3 km/h 1.6 mph /  2.6 km/h 89 % 0.0 in /  0 mm
05:01 4.9 °F /  -15.1 °C 3.1 °F /  -16.1 °C 995.1 in /  33694.1 hPa Calm   1.6 mph /  2.6 km/h 88 % 0.0 in /  0 mm
05:07 4.8 °F /  -15.1 °C 3.1 °F /  -16.1 °C 995.1 in /  33694.1 hPa NNE 1.4 mph /  2.3 km/h 1.6 mph /  2.6 km/h 89 % 0.0 in /  0 mm
05:13 4.9 °F /  -15.1 °C 3.2 °F /  -16 °C 995.1 in /  33694.1 hPa Calm   1.6 mph /  2.6 km/h 89 % 0.0 in /  0 mm
05:19 4.9 °F /  -15.1 °C 3.1 °F /  -16.1 °C 995.1 in /  33694.1 hPa Calm     88 % 0.0 in /  0 mm
05:25 4.8 °F /  -15.1 °C 3.0 °F /  -16.1 °C 995.1 in /  33694.1 hPa Calm   1.6 mph /  2.6 km/h 88 % 0.0 in /  0 mm
05:31 4.8 °F /  -15.1 °C 3.1 °F /  -16.1 °C 994.8 in /  33683.9 hPa Calm     89 % 0.0 in /  0 mm
05:37 4.9 °F /  -15.1 °C 3.1 °F /  -16.1 °C 994.8 in /  33683.9 hPa Calm     88 % 0.0 in /  0 mm
05:43 4.8 °F /  -15.1 °C 3.0 °F /  -16.1 °C 994.8 in /  33683.9 hPa Calm   1.6 mph /  2.6 km/h 88 % 0.0 in /  0 mm
05:49 4.6 °F /  -15.2 °C 2.9 °F /  -16.2 °C 994.8 in /  33683.9 hPa Calm   1.6 mph /  2.6 km/h 89 % 0.0 in /  0 mm
05:55 4.8 °F /  -15.1 °C 3.1 °F /  -16.1 °C 994.8 in /  33683.9 hPa North 1.4 mph /  2.3 km/h 1.6 mph /  2.6 km/h 89 % 0.0 in /  0 mm
06:01 4.9 °F /  -15.1 °C 3.1 °F /  -16.1 °C 994.8 in /  33683.9 hPa North 1.4 mph /  2.3 km/h 1.6 mph /  2.6 km/h 88 % 0.0 in /  0 mm
06:07 4.9 °F /  -15.1 °C 3.1 °F /  -16.1 °C 994.8 in /  33683.9 hPa North 1.4 mph /  2.3 km/h 1.6 mph /  2.6 km/h 88 % 0.0 in /  0 mm
06:13 4.5 °F /  -15.3 °C 2.4 °F /  -16.4 °C 994.8 in /  33683.9 hPa WNW 6.4 mph /  10.3 km/h 8.0 mph /  12.9 km/h 86 % 0.0 in /  0 mm
06:19 4.0 °F /  -15.6 °C 2.7 °F /  -16.3 °C 994.8 in /  33683.9 hPa Calm   4.8 mph /  7.7 km/h 91 % 0.0 in /  0 mm
06:25 3.9 °F /  -15.6 °C 2.3 °F /  -16.5 °C 995.1 in /  33694.1 hPa West 4.7 mph /  7.6 km/h 8.0 mph /  12.9 km/h 89 % 0.0 in /  0 mm
06:31 4.0 °F /  -15.6 °C 2.7 °F /  -16.3 °C 994.8 in /  33683.9 hPa WNW 3.2 mph /  5.1 km/h 6.4 mph /  10.3 km/h 91 % 0.0 in /  0 mm
06:37 4.3 °F /  -15.4 °C 3.0 °F /  -16.1 °C 994.8 in /  33683.9 hPa WNW 1.4 mph /  2.3 km/h 1.6 mph /  2.6 km/h 91 % 0.0 in /  0 mm
06:43 4.6 °F /  -15.2 °C 3.3 °F /  -15.9 °C 994.8 in /  33683.9 hPa Calm   1.6 mph /  2.6 km/h 91 % 0.0 in /  0 mm
06:49 4.9 °F /  -15.1 °C 3.2 °F /  -16 °C 994.5 in /  33673.8 hPa Calm   1.6 mph /  2.6 km/h 89 % 0.0 in /  0 mm
06:55 5.0 °F /  -15 °C 3.2 °F /  -16 °C 994.5 in /  33673.8 hPa Calm   1.6 mph /  2.6 km/h 88 % 0.0 in /  0 mm
07:01 5.1 °F /  -14.9 °C 3.3 °F /  -15.9 °C 994.5 in /  33673.8 hPa Calm   1.6 mph /  2.6 km/h 88 % 0.0 in /  0 mm
07:07 5.1 °F /  -14.9 °C 3.3 °F /  -15.9 °C 994.1 in /  33660.2 hPa Calm     88 % 0.0 in /  0 mm
07:14 4.9 °F /  -15.1 °C 3.1 °F /  -16.1 °C 994.1 in /  33660.2 hPa Calm   1.6 mph /  2.6 km/h 88 % 0.0 in /  0 mm
07:20 4.8 °F /  -15.1 °C 3.0 °F /  -16.1 °C 994.1 in /  33660.2 hPa ENE 1.4 mph /  2.3 km/h 3.2 mph /  5.1 km/h 88 % 0.0 in /  0 mm
07:26 4.9 °F /  -15.1 °C 3.1 °F /  -16.1 °C 993.8 in /  33650.1 hPa ENE 3.2 mph /  5.1 km/h 3.2 mph /  5.1 km/h 88 % 0.0 in /  0 mm
07:32 4.9 °F /  -15.1 °C 3.1 °F /  -16.1 °C 993.8 in /  33650.1 hPa ENE 1.4 mph /  2.3 km/h 1.6 mph /  2.6 km/h 88 % 0.0 in /  0 mm
07:38 5.1 °F /  -14.9 °C 3.1 °F /  -16.1 °C 993.8 in /  33650.1 hPa Calm   3.2 mph /  5.1 km/h 87 % 0.0 in /  0 mm
07:44 4.9 °F /  -15.1 °C 3.1 °F /  -16.1 °C 993.8 in /  33650.1 hPa Calm   1.6 mph /  2.6 km/h 88 % 0.0 in /  0 mm
07:50 5.1 °F /  -14.9 °C 3.3 °F /  -15.9 °C 993.5 in /  33639.9 hPa East 1.4 mph /  2.3 km/h 3.2 mph /  5.1 km/h 88 % 0.0 in /  0 mm
07:56 5.2 °F /  -14.9 °C 3.2 °F /  -16 °C 993.5 in /  33639.9 hPa Calm   1.6 mph /  2.6 km/h 87 % 0.0 in /  0 mm
08:02 5.0 °F /  -15 °C 2.9 °F /  -16.2 °C 993.1 in /  33626.4 hPa NNE 4.7 mph /  7.6 km/h 6.4 mph /  10.3 km/h 86 % 0.0 in /  0 mm
08:08 4.8 °F /  -15.1 °C 3.0 °F /  -16.1 °C 993.1 in /  33626.4 hPa NE 3.2 mph /  5.1 km/h 4.8 mph /  7.7 km/h 88 % 0.0 in /  0 mm
08:14 4.9 °F /  -15.1 °C 3.1 °F /  -16.1 °C 993.1 in /  33626.4 hPa Calm   3.2 mph /  5.1 km/h 88 % 0.0 in /  0 mm
08:20 4.8 °F /  -15.1 °C 3.1 °F /  -16.1 °C 992.8 in /  33616.2 hPa Calm   3.2 mph /  5.1 km/h 89 % 0.0 in /  0 mm
08:26 4.9 °F /  -15.1 °C 3.2 °F /  -16 °C 992.8 in /  33616.2 hPa NNE 1.4 mph /  2.3 km/h 4.8 mph /  7.7 km/h 89 % 0.0 in /  0 mm
08:32 5.0 °F /  -15 °C 3.3 °F /  -15.9 °C 992.8 in /  33616.2 hPa NNE 4.7 mph /  7.6 km/h 4.8 mph /  7.7 km/h 89 % 0.0 in /  0 mm
08:38 5.1 °F /  -14.9 °C 3.3 °F /  -15.9 °C 992.8 in /  33616.2 hPa NE 1.4 mph /  2.3 km/h 1.6 mph /  2.6 km/h 88 % 0.0 in /  0 mm
08:44 5.3 °F /  -14.8 °C 3.5 °F /  -15.8 °C 993.1 in /  33626.4 hPa Calm     88 % 0.0 in /  0 mm
08:50 5.4 °F /  -14.8 °C 3.4 °F /  -15.9 °C 992.8 in /  33616.2 hPa Calm   1.6 mph /  2.6 km/h 87 % 0.0 in /  0 mm
08:56 5.6 °F /  -14.7 °C 3.6 °F /  -15.8 °C 992.8 in /  33616.2 hPa NNE 1.4 mph /  2.3 km/h 1.6 mph /  2.6 km/h 87 % 0.0 in /  0 mm
09:02 5.6 °F /  -14.7 °C 3.6 °F /  -15.8 °C 993.1 in /  33626.4 hPa Calm     87 % 0.0 in /  0 mm
09:08 5.7 °F /  -14.6 °C 3.5 °F /  -15.8 °C 993.5 in /  33639.9 hPa South 1.4 mph /  2.3 km/h 1.6 mph /  2.6 km/h 86 % 0.0 in /  0 mm
09:14 5.7 °F /  -14.6 °C 3.5 °F /  -15.8 °C 993.1 in /  33626.4 hPa ESE 1.4 mph /  2.3 km/h 3.2 mph /  5.1 km/h 86 % 0.0 in /  0 mm
09:20 5.7 °F /  -14.6 °C 3.5 °F /  -15.8 °C 993.5 in /  33639.9 hPa WSW 3.2 mph /  5.1 km/h 3.2 mph /  5.1 km/h 86 % 0.0 in /  0 mm
09:26 5.7 °F /  -14.6 °C 3.5 °F /  -15.8 °C 993.1 in /  33626.4 hPa Calm   1.6 mph /  2.6 km/h 86 % 0.0 in /  0 mm
09:32 5.8 °F /  -14.6 °C 3.6 °F /  -15.8 °C 993.5 in /  33639.9 hPa Calm   1.6 mph /  2.6 km/h 86 % 0.0 in /  0 mm
09:38 5.9 °F /  -14.5 °C 3.6 °F /  -15.8 °C 993.5 in /  33639.9 hPa Calm   1.6 mph /  2.6 km/h 85 % 0.0 in /  0 mm
09:44 5.9 °F /  -14.5 °C 3.7 °F /  -15.7 °C 993.5 in /  33639.9 hPa Calm   3.2 mph /  5.1 km/h 86 % 0.0 in /  0 mm
09:50 5.8 °F /  -14.6 °C 3.6 °F /  -15.8 °C 993.1 in /  33626.4 hPa WNW 1.4 mph /  2.3 km/h 1.6 mph /  2.6 km/h 86 % 0.0 in /  0 mm
09:56 5.9 °F /  -14.5 °C 3.9 °F /  -15.6 °C 993.1 in /  33626.4 hPa Calm     87 % 0.0 in /  0 mm
10:02 5.9 °F /  -14.5 °C 3.9 °F /  -15.6 °C 993.1 in /  33626.4 hPa Calm   1.6 mph /  2.6 km/h 87 % 0.0 in /  0 mm
10:12 6.1 °F /  -14.4 °C 3.9 °F /  -15.6 °C 992.8 in /  33616.2 hPa South 1.4 mph /  2.3 km/h 3.2 mph /  5.1 km/h 86 % 0.0 in /  0 mm
10:18 6.2 °F /  -14.3 °C 4.0 °F /  -15.6 °C 993.1 in /  33626.4 hPa WSW 3.2 mph /  5.1 km/h 3.2 mph /  5.1 km/h 86 % 0.0 in /  0 mm
10:24 6.3 °F /  -14.3 °C 4.0 °F /  -15.6 °C 993.1 in /  33626.4 hPa SW 3.2 mph /  5.1 km/h 4.8 mph /  7.7 km/h 85 % 0.3 in /  7.62 mm
10:30 6.4 °F /  -14.2 °C 4.1 °F /  -15.5 °C 993.1 in /  33626.4 hPa SW 1.4 mph /  2.3 km/h 4.8 mph /  7.7 km/h 85 % 0.3 in /  7.62 mm
10:36 6.4 °F /  -14.2 °C 4.2 °F /  -15.4 °C 993.1 in /  33626.4 hPa SW 3.2 mph /  5.1 km/h 4.8 mph /  7.7 km/h 86 % 0.3 in /  7.62 mm
10:42 6.4 °F /  -14.2 °C 4.2 °F /  -15.4 °C 993.1 in /  33626.4 hPa SW 1.4 mph /  2.3 km/h 3.2 mph /  5.1 km/h 86 % 0.3 in /  7.62 mm
10:48 6.5 °F /  -14.2 °C 4.5 °F /  -15.3 °C 992.8 in /  33616.2 hPa Calm   3.2 mph /  5.1 km/h 87 % 0.3 in /  7.62 mm
10:54 6.6 °F /  -14.1 °C 4.6 °F /  -15.2 °C 993.1 in /  33626.4 hPa SW 1.4 mph /  2.3 km/h 6.4 mph /  10.3 km/h 87 % 0.3 in /  7.62 mm
11:00 6.7 °F /  -14.1 °C 4.7 °F /  -15.2 °C 992.8 in /  33616.2 hPa Calm   6.4 mph /  10.3 km/h 87 % 0.5 in /  12.7 mm
11:06 6.7 °F /  -14.1 °C 4.7 °F /  -15.2 °C 992.8 in /  33616.2 hPa SSW 1.4 mph /  2.3 km/h 3.2 mph /  5.1 km/h 87 % 0.5 in /  12.7 mm
11:12 6.8 °F /  -14 °C 4.8 °F /  -15.1 °C 992.8 in /  33616.2 hPa SW 1.4 mph /  2.3 km/h 4.8 mph /  7.7 km/h 87 % 0.5 in /  12.7 mm
11:18 6.8 °F /  -14 °C 4.8 °F /  -15.1 °C 992.4 in /  33602.7 hPa Calm     87 % 0.5 in /  12.7 mm
11:24 7.0 °F /  -13.9 °C 5.1 °F /  -14.9 °C 992.4 in /  33602.7 hPa Calm     88 % 0.5 in /  12.7 mm
11:30 7.1 °F /  -13.8 °C 4.9 °F /  -15.1 °C 992.4 in /  33602.7 hPa SE 1.4 mph /  2.3 km/h 3.2 mph /  5.1 km/h 86 % 0.5 in /  12.7 mm
11:36 7.2 °F /  -13.8 °C 5.3 °F /  -14.8 °C 992.4 in /  33602.7 hPa Calm   3.2 mph /  5.1 km/h 88 % 0.5 in /  12.7 mm
11:42 7.3 °F /  -13.7 °C 5.3 °F /  -14.8 °C 992.4 in /  33602.7 hPa SSE 1.4 mph /  2.3 km/h 6.4 mph /  10.3 km/h 87 % 0.5 in /  12.7 mm
11:48 7.4 °F /  -13.7 °C 5.4 °F /  -14.8 °C 992.4 in /  33602.7 hPa SE 4.7 mph /  7.6 km/h 8.0 mph /  12.9 km/h 87 % 0.5 in /  12.7 mm
11:54 7.4 °F /  -13.7 °C 5.2 °F /  -14.9 °C 992.4 in /  33602.7 hPa SSE 3.2 mph /  5.1 km/h 9.7 mph /  15.6 km/h 86 % 0.5 in /  12.7 mm
12:00 7.4 °F /  -13.7 °C 5.2 °F /  -14.9 °C 992.8 in /  33616.2 hPa SSE 1.4 mph /  2.3 km/h 4.8 mph /  7.7 km/h 86 % 0.3 in /  7.62 mm
12:06 7.4 °F /  -13.7 °C 5.4 °F /  -14.8 °C 992.8 in /  33616.2 hPa SE 1.4 mph /  2.3 km/h 6.4 mph /  10.3 km/h 87 % 0.5 in /  12.7 mm
12:12 7.4 °F /  -13.7 °C 5.4 °F /  -14.8 °C 992.8 in /  33616.2 hPa SSE 1.4 mph /  2.3 km/h 4.8 mph /  7.7 km/h 87 % 0.5 in /  12.7 mm
12:18 7.4 °F /  -13.7 °C 5.5 °F /  -14.7 °C 992.8 in /  33616.2 hPa South 1.4 mph /  2.3 km/h 6.4 mph /  10.3 km/h 88 % 1.0 in /  25.4 mm
12:24 7.4 °F /  -13.7 °C 5.5 °F /  -14.7 °C 992.8 in /  33616.2 hPa SE 4.7 mph /  7.6 km/h 8.0 mph /  12.9 km/h 88 % 1.0 in /  25.4 mm
12:30 7.3 °F /  -13.7 °C 5.6 °F /  -14.7 °C 992.8 in /  33616.2 hPa South 1.4 mph /  2.3 km/h 6.4 mph /  10.3 km/h 89 % 1.5 in /  38.1 mm
12:36 7.2 °F /  -13.8 °C 5.7 °F /  -14.6 °C 992.8 in /  33616.2 hPa SE 3.2 mph /  5.1 km/h 8.0 mph /  12.9 km/h 90 % 1.8 in /  45.72 mm
12:42 7.2 °F /  -13.8 °C 5.7 °F /  -14.6 °C 992.8 in /  33616.2 hPa SSE 4.7 mph /  7.6 km/h 4.8 mph /  7.7 km/h 90 % 2.3 in /  58.42 mm
12:48 7.2 °F /  -13.8 °C 5.8 °F /  -14.6 °C 992.8 in /  33616.2 hPa SSE 1.4 mph /  2.3 km/h 8.0 mph /  12.9 km/h 91 % 2.3 in /  58.42 mm
12:54 7.3 °F /  -13.7 °C 5.9 °F /  -14.5 °C 992.8 in /  33616.2 hPa SSE 1.4 mph /  2.3 km/h 9.7 mph /  15.6 km/h 91 % 2.3 in /  58.42 mm
13:00 7.4 °F /  -13.7 °C 6.2 °F /  -14.3 °C 992.8 in /  33616.2 hPa SSE 4.7 mph /  7.6 km/h 6.4 mph /  10.3 km/h 92 % 2.8 in /  71.12 mm
13:06 7.4 °F /  -13.7 °C 6.2 °F /  -14.3 °C 992.8 in /  33616.2 hPa SSE 4.7 mph /  7.6 km/h 9.7 mph /  15.6 km/h 92 % 2.8 in /  71.12 mm
13:12 7.6 °F /  -13.6 °C 6.4 °F /  -14.2 °C 992.4 in /  33602.7 hPa SSW 6.4 mph /  10.3 km/h 11.3 mph /  18.2 km/h 92 % 2.5 in /  63.5 mm
13:19 7.7 °F /  -13.5 °C 6.5 °F /  -14.2 °C 992.8 in /  33616.2 hPa SSW 4.7 mph /  7.6 km/h 17.7 mph /  28.5 km/h 92 % 2.5 in /  63.5 mm
13:25 7.8 °F /  -13.4 °C 6.7 °F /  -14.1 °C 992.4 in /  33602.7 hPa SE 14.3 mph /  23 km/h 17.7 mph /  28.5 km/h 93 % 2.5 in /  63.5 mm
13:31 7.9 °F /  -13.4 °C 6.8 °F /  -14 °C 992.4 in /  33602.7 hPa SSW 11.1 mph /  17.9 km/h 19.3 mph /  31.1 km/h 93 % 2.3 in /  58.42 mm
13:37 8.1 °F /  -13.3 °C 6.9 °F /  -13.9 °C 992.4 in /  33602.7 hPa South 16.3 mph /  26.2 km/h 30.6 mph /  49.2 km/h 92 % 2.0 in /  50.8 mm
13:43 8.2 °F /  -13.2 °C 7.0 °F /  -13.9 °C 992.8 in /  33616.2 hPa SSW 27.4 mph /  44.1 km/h 32.2 mph /  51.8 km/h 92 % 1.8 in /  45.72 mm
13:49 8.3 °F /  -13.2 °C 6.9 °F /  -13.9 °C 992.8 in /  33616.2 hPa SSW 30.6 mph /  49.2 km/h 32.2 mph /  51.8 km/h 91 % 1.8 in /  45.72 mm
13:55 8.2 °F /  -13.2 °C 7.0 °F /  -13.9 °C 993.1 in /  33626.4 hPa WSW 17.7 mph /  28.5 km/h 27.4 mph /  44.1 km/h 92 % 1.8 in /  45.72 mm
14:01 8.0 °F /  -13.3 °C 6.6 °F /  -14.1 °C 993.5 in /  33639.9 hPa West 24.1 mph /  38.8 km/h 32.2 mph /  51.8 km/h 91 % 1.5 in /  38.1 mm
14:07 7.8 °F /  -13.4 °C 6.4 °F /  -14.2 °C 993.5 in /  33639.9 hPa SW 22.7 mph /  36.5 km/h 25.7 mph /  41.4 km/h 91 % 1.3 in /  33.02 mm
14:13 7.7 °F /  -13.5 °C 6.3 °F /  -14.3 °C 993.8 in /  33650.1 hPa West 16.3 mph /  26.2 km/h 24.1 mph /  38.8 km/h 91 % 1.5 in /  38.1 mm
14:19 7.6 °F /  -13.6 °C 6.2 °F /  -14.3 °C 993.8 in /  33650.1 hPa West 22.7 mph /  36.5 km/h 30.6 mph /  49.2 km/h 91 % 1.0 in /  25.4 mm
14:25 7.5 °F /  -13.6 °C 6.0 °F /  -14.4 °C 993.8 in /  33650.1 hPa West 16.3 mph /  26.2 km/h 38.6 mph /  62.1 km/h 90 % 1.0 in /  25.4 mm
14:31 7.4 °F /  -13.7 °C 5.9 °F /  -14.5 °C 994.1 in /  33660.2 hPa West 19.5 mph /  31.4 km/h 29.0 mph /  46.7 km/h 90 % 0.8 in /  20.32 mm
14:37 7.4 °F /  -13.7 °C 6.0 °F /  -14.4 °C 994.1 in /  33660.2 hPa WSW 14.3 mph /  23 km/h 22.5 mph /  36.2 km/h 91 % 0.8 in /  20.32 mm
14:43 7.4 °F /  -13.7 °C 6.0 °F /  -14.4 °C 994.1 in /  33660.2 hPa West 17.7 mph /  28.5 km/h 22.5 mph /  36.2 km/h 91 % 0.5 in /  12.7 mm
14:49 7.4 °F /  -13.7 °C 6.0 °F /  -14.4 °C 994.1 in /  33660.2 hPa WSW 13.0 mph /  20.9 km/h 17.7 mph /  28.5 km/h 91 % 0.8 in /  20.32 mm
14:55 7.4 °F /  -13.7 °C 6.0 °F /  -14.4 °C 994.1 in /  33660.2 hPa West 13.0 mph /  20.9 km/h 17.7 mph /  28.5 km/h 91 % 0.5 in /  12.7 mm
15:01 7.4 °F /  -13.7 °C 6.0 °F /  -14.4 °C 994.1 in /  33660.2 hPa SW 6.4 mph /  10.3 km/h 16.1 mph /  25.9 km/h 91 % 0.5 in /  12.7 mm
15:07 7.3 °F /  -13.7 °C 5.8 °F /  -14.6 °C 994.1 in /  33660.2 hPa WSW 6.4 mph /  10.3 km/h 8.0 mph /  12.9 km/h 90 % 0.5 in /  12.7 mm
15:13 7.5 °F /  -13.6 °C 6.0 °F /  -14.4 °C 994.1 in /  33660.2 hPa WSW 1.4 mph /  2.3 km/h 4.8 mph /  7.7 km/h 90 % 0.5 in /  12.7 mm
15:19 7.6 °F /  -13.6 °C 6.1 °F /  -14.4 °C 994.1 in /  33660.2 hPa SW 6.4 mph /  10.3 km/h 9.7 mph /  15.6 km/h 90 % 0.5 in /  12.7 mm
15:25 7.7 °F /  -13.5 °C 6.2 °F /  -14.3 °C 993.8 in /  33650.1 hPa SW 4.7 mph /  7.6 km/h 11.3 mph /  18.2 km/h 90 % 0.3 in /  7.62 mm
15:31 7.7 °F /  -13.5 °C 6.2 °F /  -14.3 °C 994.1 in /  33660.2 hPa SW 6.4 mph /  10.3 km/h 12.9 mph /  20.8 km/h 90 % 0.3 in /  7.62 mm
15:37 7.7 °F /  -13.5 °C 6.3 °F /  -14.3 °C 994.1 in /  33660.2 hPa SSW 11.1 mph /  17.9 km/h 14.5 mph /  23.3 km/h 91 % 0.3 in /  7.62 mm
15:43 7.7 °F /  -13.5 °C 6.3 °F /  -14.3 °C 994.1 in /  33660.2 hPa SSW 11.1 mph /  17.9 km/h 12.9 mph /  20.8 km/h 91 % 0.3 in /  7.62 mm
15:49 7.7 °F /  -13.5 °C 6.3 °F /  -14.3 °C 994.1 in /  33660.2 hPa SSW 13.0 mph /  20.9 km/h 19.3 mph /  31.1 km/h 91 % 0.0 in /  0 mm
15:55 7.7 °F /  -13.5 °C 6.3 °F /  -14.3 °C 994.1 in /  33660.2 hPa SW 14.3 mph /  23 km/h 19.3 mph /  31.1 km/h 91 % 0.0 in /  0 mm
16:01 7.8 °F /  -13.4 °C 6.3 °F /  -14.3 °C 994.5 in /  33673.8 hPa SW 17.7 mph /  28.5 km/h 20.9 mph /  33.6 km/h 90 % 0.0 in /  0 mm
16:07 7.7 °F /  -13.5 °C 6.2 °F /  -14.3 °C 994.5 in /  33673.8 hPa SW 13.0 mph /  20.9 km/h 17.7 mph /  28.5 km/h 90 % 0.0 in /  0 mm
16:13 7.8 °F /  -13.4 °C 6.3 °F /  -14.3 °C 994.5 in /  33673.8 hPa WSW 14.3 mph /  23 km/h 14.5 mph /  23.3 km/h 90 % 0.0 in /  0 mm
16:19 7.8 °F /  -13.4 °C 6.4 °F /  -14.2 °C 994.5 in /  33673.8 hPa SW 3.2 mph /  5.1 km/h 11.3 mph /  18.2 km/h 91 % 0.0 in /  0 mm
16:25 7.9 °F /  -13.4 °C 6.5 °F /  -14.2 °C 994.8 in /  33683.9 hPa SW 6.4 mph /  10.3 km/h 11.3 mph /  18.2 km/h 91 % 0.0 in /  0 mm
16:31 8.0 °F /  -13.3 °C 6.5 °F /  -14.2 °C 994.8 in /  33683.9 hPa WSW 14.3 mph /  23 km/h 22.5 mph /  36.2 km/h 90 % 0.0 in /  0 mm
16:37 8.0 °F /  -13.3 °C 6.3 °F /  -14.3 °C 994.8 in /  33683.9 hPa WSW 4.7 mph /  7.6 km/h 19.3 mph /  31.1 km/h 89 % 0.0 in /  0 mm
16:43 8.1 °F /  -13.3 °C 6.4 °F /  -14.2 °C 994.8 in /  33683.9 hPa SW 13.0 mph /  20.9 km/h 16.1 mph /  25.9 km/h 89 % 0.0 in /  0 mm
16:49 8.1 °F /  -13.3 °C 6.4 °F /  -14.2 °C 994.8 in /  33683.9 hPa South 9.7 mph /  15.6 km/h 12.9 mph /  20.8 km/h 89 % 0.0 in /  0 mm
16:55 8.1 °F /  -13.3 °C 6.4 °F /  -14.2 °C 994.8 in /  33683.9 hPa SW 16.3 mph /  26.2 km/h 17.7 mph /  28.5 km/h 89 % 0.0 in /  0 mm
17:01 8.1 °F /  -13.3 °C 6.2 °F /  -14.3 °C 994.8 in /  33683.9 hPa WSW 7.9 mph /  12.7 km/h 16.1 mph /  25.9 km/h 88 % 0.0 in /  0 mm
17:07 8.1 °F /  -13.3 °C 6.2 °F /  -14.3 °C 994.8 in /  33683.9 hPa SW 19.5 mph /  31.4 km/h 19.5 mph /  31.4 km/h 88 % 0.0 in /  0 mm
17:13 8.1 °F /  -13.3 °C 6.1 °F /  -14.4 °C 995.1 in /  33694.1 hPa SW 16.3 mph /  26.2 km/h 22.5 mph /  36.2 km/h 87 % 0.0 in /  0 mm
17:19 8.0 °F /  -13.3 °C 6.0 °F /  -14.4 °C 995.1 in /  33694.1 hPa SW 16.3 mph /  26.2 km/h 20.9 mph /  33.6 km/h 87 % 0.0 in /  0 mm
17:25 8.0 °F /  -13.3 °C 6.1 °F /  -14.4 °C 995.1 in /  33694.1 hPa SSW 16.3 mph /  26.2 km/h 16.3 mph /  26.2 km/h 88 % 0.0 in /  0 mm
17:31 7.9 °F /  -13.4 °C 6.0 °F /  -14.4 °C 995.1 in /  33694.1 hPa SW 13.0 mph /  20.9 km/h 17.7 mph /  28.5 km/h 88 % 0.0 in /  0 mm
17:37 7.9 °F /  -13.4 °C 5.9 °F /  -14.5 °C 995.1 in /  33694.1 hPa SW 9.7 mph /  15.6 km/h 19.3 mph /  31.1 km/h 87 % 0.0 in /  0 mm
17:43 7.9 °F /  -13.4 °C 6.0 °F /  -14.4 °C 995.5 in /  33707.6 hPa SW 6.4 mph /  10.3 km/h 12.9 mph /  20.8 km/h 88 % 0.0 in /  0 mm
17:49 7.9 °F /  -13.4 °C 6.2 °F /  -14.3 °C 995.5 in /  33707.6 hPa South 9.7 mph /  15.6 km/h 11.3 mph /  18.2 km/h 89 % 0.0 in /  0 mm
17:55 7.8 °F /  -13.4 °C 6.1 °F /  -14.4 °C 995.5 in /  33707.6 hPa SW 7.9 mph /  12.7 km/h 14.5 mph /  23.3 km/h 89 % 0.0 in /  0 mm
18:01 7.8 °F /  -13.4 °C 6.1 °F /  -14.4 °C 995.1 in /  33694.1 hPa SSW 7.9 mph /  12.7 km/h 11.3 mph /  18.2 km/h 89 % 0.0 in /  0 mm
18:07 7.8 °F /  -13.4 °C 6.3 °F /  -14.3 °C 995.5 in /  33707.6 hPa SSW 9.7 mph /  15.6 km/h 11.3 mph /  18.2 km/h 90 % 0.0 in /  0 mm
18:13 7.7 °F /  -13.5 °C 6.2 °F /  -14.3 °C 995.1 in /  33694.1 hPa SSW 4.7 mph /  7.6 km/h 9.7 mph /  15.6 km/h 90 % 0.0 in /  0 mm
18:19 7.7 °F /  -13.5 °C 6.2 °F /  -14.3 °C 995.5 in /  33707.6 hPa SW 6.4 mph /  10.3 km/h 9.7 mph /  15.6 km/h 90 % 0.0 in /  0 mm
18:25 7.5 °F /  -13.6 °C 6.0 °F /  -14.4 °C 995.5 in /  33707.6 hPa SSW 6.4 mph /  10.3 km/h 9.7 mph /  15.6 km/h 90 % 0.0 in /  0 mm
18:31 7.4 °F /  -13.7 °C 6.0 °F /  -14.4 °C 995.5 in /  33707.6 hPa SSW 4.7 mph /  7.6 km/h 8.0 mph /  12.9 km/h 91 % 0.0 in /  0 mm
18:37 7.3 °F /  -13.7 °C 5.9 °F /  -14.5 °C 995.5 in /  33707.6 hPa SSW 3.2 mph /  5.1 km/h 9.7 mph /  15.6 km/h 91 % 0.0 in /  0 mm
18:43 7.2 °F /  -13.8 °C 5.8 °F /  -14.6 °C 995.5 in /  33707.6 hPa SSW 4.7 mph /  7.6 km/h 6.4 mph /  10.3 km/h 91 % 0.0 in /  0 mm
18:49 7.1 °F /  -13.8 °C 5.7 °F /  -14.6 °C 995.8 in /  33717.8 hPa SSW 4.7 mph /  7.6 km/h 9.7 mph /  15.6 km/h 91 % 0.0 in /  0 mm
18:55 6.9 °F /  -13.9 °C 5.7 °F /  -14.6 °C 995.8 in /  33717.8 hPa SSW 4.7 mph /  7.6 km/h 8.0 mph /  12.9 km/h 92 % 0.0 in /  0 mm
19:01 6.8 °F /  -14 °C 5.6 °F /  -14.7 °C 995.8 in /  33717.8 hPa SSW 3.2 mph /  5.1 km/h 6.4 mph /  10.3 km/h 92 % 0.0 in /  0 mm
19:07 6.7 °F /  -14.1 °C 5.5 °F /  -14.7 °C 995.8 in /  33717.8 hPa SSW 3.2 mph /  5.1 km/h 4.8 mph /  7.7 km/h 92 % 0.0 in /  0 mm
19:13 6.6 °F /  -14.1 °C 5.4 °F /  -14.8 °C 995.8 in /  33717.8 hPa SSW 3.2 mph /  5.1 km/h 6.4 mph /  10.3 km/h 92 % 0.0 in /  0 mm
19:19 6.6 °F /  -14.1 °C 5.4 °F /  -14.8 °C 995.8 in /  33717.8 hPa SSW 1.4 mph /  2.3 km/h 3.2 mph /  5.1 km/h 92 % 0.0 in /  0 mm
19:25 6.5 °F /  -14.2 °C 5.3 °F /  -14.8 °C 995.8 in /  33717.8 hPa SSE 1.4 mph /  2.3 km/h 4.8 mph /  7.7 km/h 92 % 0.0 in /  0 mm
19:31 6.6 °F /  -14.1 °C 5.4 °F /  -14.8 °C 995.8 in /  33717.8 hPa SE 3.2 mph /  5.1 km/h 8.0 mph /  12.9 km/h 92 % 0.0 in /  0 mm
19:37 6.6 °F /  -14.1 °C 5.4 °F /  -14.8 °C 995.8 in /  33717.8 hPa SSW 1.4 mph /  2.3 km/h 8.0 mph /  12.9 km/h 92 % 0.0 in /  0 mm
19:43 6.7 °F /  -14.1 °C 5.5 °F /  -14.7 °C 996.2 in /  33731.3 hPa SSW 6.4 mph /  10.3 km/h 6.4 mph /  10.3 km/h 92 % 0.0 in /  0 mm
19:49 6.8 °F /  -14 °C 5.6 °F /  -14.7 °C 996.2 in /  33731.3 hPa SSW 6.4 mph /  10.3 km/h 9.7 mph /  15.6 km/h 92 % 0.0 in /  0 mm
19:55 6.9 °F /  -13.9 °C 5.5 °F /  -14.7 °C 996.2 in /  33731.3 hPa SSW 4.7 mph /  7.6 km/h 8.0 mph /  12.9 km/h 91 % 0.0 in /  0 mm
20:01 6.8 °F /  -14 °C 5.4 °F /  -14.8 °C 996.5 in /  33741.5 hPa SW 6.4 mph /  10.3 km/h 6.4 mph /  10.3 km/h 91 % 0.0 in /  0 mm
20:07 6.7 °F /  -14.1 °C 5.3 °F /  -14.8 °C 996.5 in /  33741.5 hPa SSE 4.7 mph /  7.6 km/h 8.0 mph /  12.9 km/h 91 % 0.0 in /  0 mm
20:13 6.7 °F /  -14.1 °C 5.3 °F /  -14.8 °C 996.5 in /  33741.5 hPa SSW 3.2 mph /  5.1 km/h 6.4 mph /  10.3 km/h 91 % 0.0 in /  0 mm
20:19 6.7 °F /  -14.1 °C 5.5 °F /  -14.7 °C 996.8 in /  33751.6 hPa SSW 4.7 mph /  7.6 km/h 6.4 mph /  10.3 km/h 92 % 0.0 in /  0 mm
20:25 6.8 °F /  -14 °C 5.4 °F /  -14.8 °C 996.8 in /  33751.6 hPa SSW 4.7 mph /  7.6 km/h 6.4 mph /  10.3 km/h 91 % 0.0 in /  0 mm
20:31 6.8 °F /  -14 °C 5.4 °F /  -14.8 °C 996.8 in /  33751.6 hPa SSW 3.2 mph /  5.1 km/h 9.7 mph /  15.6 km/h 91 % 0.0 in /  0 mm
20:37 6.7 °F /  -14.1 °C 5.3 °F /  -14.8 °C 996.8 in /  33751.6 hPa SSW 1.4 mph /  2.3 km/h 3.2 mph /  5.1 km/h 91 % 0.0 in /  0 mm
20:43 6.7 °F /  -14.1 °C 5.3 °F /  -14.8 °C 996.8 in /  33751.6 hPa SSW 1.4 mph /  2.3 km/h 3.2 mph /  5.1 km/h 91 % 0.0 in /  0 mm
20:49 6.6 °F /  -14.1 °C 5.2 °F /  -14.9 °C 996.8 in /  33751.6 hPa SSW 1.4 mph /  2.3 km/h 3.2 mph /  5.1 km/h 91 % 0.0 in /  0 mm
20:55 6.6 °F /  -14.1 °C 5.4 °F /  -14.8 °C 997.2 in /  33765.2 hPa Calm   1.6 mph /  2.6 km/h 92 % 0.0 in /  0 mm
21:01 6.4 °F /  -14.2 °C 5.0 °F /  -15 °C 997.2 in /  33765.2 hPa Calm     91 % 0.0 in /  0 mm
21:07 6.4 °F /  -14.2 °C 5.0 °F /  -15 °C 997.2 in /  33765.2 hPa Calm   1.6 mph /  2.6 km/h 91 % 0.0 in /  0 mm
21:14 6.3 °F /  -14.3 °C 5.1 °F /  -14.9 °C 997.2 in /  33765.2 hPa Calm     92 % 0.0 in /  0 mm
21:20 6.3 °F /  -14.3 °C 4.9 °F /  -15.1 °C 997.2 in /  33765.2 hPa Calm   1.6 mph /  2.6 km/h 91 % 0.0 in /  0 mm
21:26 6.2 °F /  -14.3 °C 4.8 °F /  -15.1 °C 997.2 in /  33765.2 hPa Calm   1.6 mph /  2.6 km/h 91 % 0.0 in /  0 mm
21:32 6.0 °F /  -14.4 °C 4.6 °F /  -15.2 °C 997.2 in /  33765.2 hPa SE 1.4 mph /  2.3 km/h 1.6 mph /  2.6 km/h 91 % 0.0 in /  0 mm
21:38 5.9 °F /  -14.5 °C 4.5 °F /  -15.3 °C 997.5 in /  33775.4 hPa SSE 1.4 mph /  2.3 km/h 3.2 mph /  5.1 km/h 91 % 0.0 in /  0 mm
21:44 6.1 °F /  -14.4 °C 4.7 °F /  -15.2 °C 997.5 in /  33775.4 hPa SSE 3.2 mph /  5.1 km/h 6.4 mph /  10.3 km/h 91 % 0.0 in /  0 mm
21:50 6.1 °F /  -14.4 °C 4.6 °F /  -15.2 °C 997.5 in /  33775.4 hPa SSW 4.7 mph /  7.6 km/h 4.8 mph /  7.7 km/h 90 % 0.0 in /  0 mm
21:56 6.2 °F /  -14.3 °C 4.7 °F /  -15.2 °C 997.9 in /  33788.9 hPa SW 4.7 mph /  7.6 km/h 11.3 mph /  18.2 km/h 90 % 0.0 in /  0 mm
22:02 6.3 °F /  -14.3 °C 4.6 °F /  -15.2 °C 997.9 in /  33788.9 hPa SSW 6.4 mph /  10.3 km/h 8.0 mph /  12.9 km/h 89 % 0.0 in /  0 mm
22:08 6.2 °F /  -14.3 °C 4.5 °F /  -15.3 °C 997.9 in /  33788.9 hPa SSW 3.2 mph /  5.1 km/h 4.8 mph /  7.7 km/h 89 % 0.0 in /  0 mm
22:14 6.2 °F /  -14.3 °C 4.5 °F /  -15.3 °C 997.9 in /  33788.9 hPa SSW 3.2 mph /  5.1 km/h 4.8 mph /  7.7 km/h 89 % 0.0 in /  0 mm
22:20 6.2 °F /  -14.3 °C 4.7 °F /  -15.2 °C 997.9 in /  33788.9 hPa SW 6.4 mph /  10.3 km/h 6.4 mph /  10.3 km/h 90 % 0.0 in /  0 mm
22:26 6.2 °F /  -14.3 °C 4.5 °F /  -15.3 °C 997.9 in /  33788.9 hPa SW 3.2 mph /  5.1 km/h 4.8 mph /  7.7 km/h 89 % 0.0 in /  0 mm
22:32 6.2 °F /  -14.3 °C 4.5 °F /  -15.3 °C 997.9 in /  33788.9 hPa SSW 1.4 mph /  2.3 km/h 6.4 mph /  10.3 km/h 89 % 0.0 in /  0 mm
22:38 6.2 °F /  -14.3 °C 4.5 °F /  -15.3 °C 997.9 in /  33788.9 hPa SSW 1.4 mph /  2.3 km/h 4.8 mph /  7.7 km/h 89 % 0.0 in /  0 mm
22:44 6.1 °F /  -14.4 °C 4.4 °F /  -15.3 °C 997.9 in /  33788.9 hPa SW 1.4 mph /  2.3 km/h 3.2 mph /  5.1 km/h 89 % 0.0 in /  0 mm
22:50 6.1 °F /  -14.4 °C 4.4 °F /  -15.3 °C 997.9 in /  33788.9 hPa SW 3.2 mph /  5.1 km/h 4.8 mph /  7.7 km/h 89 % 0.0 in /  0 mm
22:56 5.9 °F /  -14.5 °C 4.2 °F /  -15.4 °C 997.9 in /  33788.9 hPa SW 3.2 mph /  5.1 km/h 4.8 mph /  7.7 km/h 89 % 0.0 in /  0 mm
23:02 5.9 °F /  -14.5 °C 4.2 °F /  -15.4 °C 997.9 in /  33788.9 hPa SW 1.4 mph /  2.3 km/h 4.8 mph /  7.7 km/h 89 % 0.0 in /  0 mm
23:08 5.8 °F /  -14.6 °C 4.3 °F /  -15.4 °C 997.9 in /  33788.9 hPa SSW 1.4 mph /  2.3 km/h 4.8 mph /  7.7 km/h 90 % 0.0 in /  0 mm
23:14 5.8 °F /  -14.6 °C 4.1 °F /  -15.5 °C 997.9 in /  33788.9 hPa SSW 3.2 mph /  5.1 km/h 4.8 mph /  7.7 km/h 89 % 0.0 in /  0 mm
23:20 5.9 °F /  -14.5 °C 4.2 °F /  -15.4 °C 997.9 in /  33788.9 hPa SSW 3.2 mph /  5.1 km/h 4.8 mph /  7.7 km/h 89 % 0.0 in /  0 mm
23:26 5.9 °F /  -14.5 °C 4.2 °F /  -15.4 °C 997.9 in /  33788.9 hPa SSW 3.2 mph /  5.1 km/h 4.8 mph /  7.7 km/h 89 % 0.0 in /  0 mm
23:32 6.0 °F /  -14.4 °C 4.3 °F /  -15.4 °C 997.9 in /  33788.9 hPa SSW 3.2 mph /  5.1 km/h 4.8 mph /  7.7 km/h 89 % 0.0 in /  0 mm
23:38 6.0 °F /  -14.4 °C 4.3 °F /  -15.4 °C 997.9 in /  33788.9 hPa SSW 1.4 mph /  2.3 km/h 3.2 mph /  5.1 km/h 89 % 0.0 in /  0 mm
23:44 6.1 °F /  -14.4 °C 4.4 °F /  -15.3 °C 997.9 in /  33788.9 hPa SW 3.2 mph /  5.1 km/h 3.2 mph /  5.1 km/h 89 % 0.0 in /  0 mm
23:50 6.2 °F /  -14.3 °C 4.4 °F /  -15.3 °C 997.9 in /  33788.9 hPa SW 3.2 mph /  5.1 km/h 4.8 mph /  7.7 km/h 88 % 0.0 in /  0 mm
23:56 6.2 °F /  -14.3 °C 4.4 °F /  -15.3 °C 997.9 in /  33788.9 hPa SSW 1.4 mph /  2.3 km/h 3.2 mph /  5.1 km/h 88 % 0.0 in /  0 mm
Meteo18
Compliments of Weather Underground - 4 mb

Script developed by  Jim McMurry - jmcmurry@mwt.net Adapted for the template by  Wim van der Kuil - Leuven-Template.eu

You find our weather info also at:

European Weather Network

Weather Underground

Equipment we use:

Weather-station
Davis Vue

Weather-program
Meteobridge

Weather-server
Raspberry PI 2 B+

Provider
1 and 1

Davis Vue

Meteobridge

Raspberry PI 2 B+

1 and 1